createdAt,value
2023-03-21T00:01:29.329Z,98668.16
2023-03-21T00:03:55.582Z,98687.13
2023-03-21T00:06:21.851Z,98701.41
2023-03-21T00:08:48.139Z,98704.28
2023-03-21T00:11:14.341Z,98706.38
2023-03-21T00:13:40.557Z,98708.44
2023-03-21T00:16:14.403Z,98712.34
2023-03-21T00:18:42.911Z,98711.56
2023-03-21T00:21:38.370Z,98712.84
2023-03-21T00:23:56.326Z,98724.50
2023-03-21T00:26:22.531Z,98730.47
2023-03-21T00:28:48.740Z,98753.06
2023-03-21T00:31:14.940Z,98761.63
2023-03-21T00:33:41.209Z,98765.50
2023-03-21T00:36:08.439Z,98767.88
2023-03-21T00:38:35.310Z,98771.25
2023-03-21T00:41:18.932Z,98765.00
2023-03-21T00:43:49.846Z,98772.28
2023-03-21T00:46:16.081Z,98762.69
2023-03-21T00:48:42.327Z,98761.91
2023-03-21T00:51:12.447Z,98755.44
2023-03-21T00:53:38.637Z,98744.28
2023-03-21T00:56:04.992Z,98750.22
2023-03-21T00:58:31.201Z,98756.19
2023-03-21T01:00:57.603Z,98754.38
2023-03-21T01:03:25.618Z,98757.25
2023-03-21T01:05:51.911Z,98761.16
2023-03-21T01:08:25.353Z,98766.84
2023-03-21T01:10:55.695Z,98769.19
2023-03-21T01:13:22.292Z,98766.34
2023-03-21T01:15:49.541Z,98755.44
2023-03-21T01:18:16.035Z,98771.53
2023-03-21T01:20:42.581Z,98765.81
2023-03-21T01:23:09.117Z,98767.09
2023-03-21T01:25:35.339Z,98774.38
2023-03-21T01:28:01.543Z,98775.69
2023-03-21T01:30:31.245Z,98776.75
2023-03-21T01:32:57.566Z,98769.72
2023-03-21T01:35:23.787Z,98766.38
2023-03-21T01:37:49.996Z,98762.47
2023-03-21T01:40:16.695Z,98757.03
2023-03-21T01:42:42.892Z,98756.75
2023-03-21T01:45:28.044Z,98752.63
2023-03-21T01:47:54.312Z,98744.28
2023-03-21T01:50:20.522Z,98760.38
2023-03-21T01:52:46.719Z,98760.88
2023-03-21T01:55:12.940Z,98774.13
2023-03-21T01:57:45.365Z,98784.25
2023-03-21T02:00:15.680Z,98783.47
2023-03-21T02:02:42.862Z,98796.19
2023-03-21T02:05:09.072Z,98797.22
2023-03-21T02:07:35.266Z,98785.81
2023-03-21T02:10:02.261Z,98793.59
2023-03-21T02:12:28.492Z,98795.16
2023-03-21T02:14:54.725Z,98798.00
2023-03-21T02:17:39.742Z,98788.41
2023-03-21T02:20:17.412Z,98795.66
2023-03-21T02:22:55.860Z,98813.31
2023-03-21T02:25:37.328Z,98809.94
2023-03-21T02:28:23.887Z,98809.16
2023-03-21T02:31:09.004Z,98818.75
2023-03-21T02:33:46.349Z,98802.94
2023-03-21T02:36:16.541Z,98803.19
2023-03-21T02:38:55.859Z,98796.97
2023-03-21T02:41:40.921Z,98779.59
2023-03-21T02:44:08.849Z,98775.44
2023-03-21T02:46:45.393Z,98778.56
2023-03-21T02:49:24.127Z,98765.56
2023-03-21T02:51:50.679Z,98754.94
2023-03-21T02:54:30.243Z,98767.91
2023-03-21T02:56:58.759Z,98767.91
2023-03-21T02:59:24.967Z,98759.09
2023-03-21T03:01:51.589Z,98751.31
2023-03-21T03:04:25.360Z,98759.09
2023-03-21T03:06:57.823Z,98754.16
2023-03-21T03:09:23.977Z,98750.78
2023-03-21T03:11:50.812Z,98753.13
2023-03-21T03:14:53.153Z,98741.19
2023-03-21T03:17:29.935Z,98737.81
2023-03-21T03:20:15.594Z,98730.81
2023-03-21T03:22:48.125Z,98722.25
2023-03-21T03:25:23.153Z,98710.56
2023-03-21T03:27:56.093Z,98709.53
2023-03-21T03:30:25.412Z,98703.31
2023-03-21T03:32:57.372Z,98705.63
2023-03-21T03:35:23.575Z,98699.66
2023-03-21T03:37:51.290Z,98697.06
2023-03-21T03:40:22.138Z,98698.34
2023-03-21T03:42:49.502Z,98707.19
2023-03-21T03:45:15.712Z,98709.00
2023-03-21T03:47:55.913Z,98705.88
2023-03-21T03:50:33.636Z,98704.09
2023-03-21T03:53:18.632Z,98701.97
2023-03-21T03:55:45.144Z,98705.09
2023-03-21T03:58:21.777Z,98709.75
2023-03-21T04:00:50.397Z,98712.63
2023-03-21T04:03:16.668Z,98707.72
2023-03-21T04:05:42.889Z,98696.31
2023-03-21T04:08:09.098Z,98699.13
2023-03-21T04:10:35.591Z,98691.63
2023-03-21T04:13:01.943Z,98679.97
2023-03-21T04:15:28.141Z,98672.97
2023-03-21T04:17:54.358Z,98672.19
2023-03-21T04:20:33.898Z,98684.09
2023-03-21T04:23:02.888Z,98678.66
2023-03-21T04:25:33.715Z,98669.59
2023-03-21T04:28:00.226Z,98678.38
2023-03-21T04:30:26.469Z,98676.03
2023-03-21T04:32:52.671Z,98675.25
2023-03-21T04:35:18.876Z,98677.84
2023-03-21T04:37:45.086Z,98691.88
2023-03-21T04:40:11.477Z,98696.53
2023-03-21T04:42:37.861Z,98694.97
2023-03-21T04:45:04.320Z,98682.00
2023-03-21T04:47:30.540Z,98674.22
2023-03-21T04:49:56.759Z,98673.19
2023-03-21T04:52:25.231Z,98659.41
2023-03-21T04:54:51.642Z,98680.97
2023-03-21T04:57:17.877Z,98681.75
2023-03-21T04:59:44.072Z,98696.00
2023-03-21T05:02:10.276Z,98697.31
2023-03-21T05:04:36.486Z,98690.56
2023-03-21T05:07:02.709Z,98703.25
2023-03-21T05:09:28.952Z,98718.31
2023-03-21T05:11:55.141Z,98735.19
2023-03-21T05:14:22.111Z,98749.47
2023-03-21T05:16:48.576Z,98747.88
2023-03-21T05:19:15.229Z,98758.53
2023-03-21T05:21:41.554Z,98758.03
2023-03-21T05:24:08.522Z,98760.38
2023-03-21T05:26:34.729Z,98752.06
2023-03-21T05:29:00.934Z,98754.91
2023-03-21T05:31:27.127Z,98772.03
2023-03-21T05:33:53.344Z,98778.50
2023-03-21T05:36:19.626Z,98803.44
2023-03-21T05:38:45.852Z,98815.88
2023-03-21T05:41:15.500Z,98822.09
2023-03-21T05:43:42.085Z,98834.31
2023-03-21T05:46:08.325Z,98837.16
2023-03-21T05:48:34.611Z,98843.13
2023-03-21T05:51:01.017Z,98839.50
2023-03-21T05:53:27.235Z,98840.28
2023-03-21T05:55:53.457Z,98845.22
2023-03-21T05:58:19.682Z,98861.03
2023-03-21T06:00:47.579Z,98865.69
2023-03-21T06:03:14.422Z,98873.25
2023-03-21T06:05:40.656Z,98877.38
2023-03-21T06:08:06.866Z,98886.22
2023-03-21T06:10:33.062Z,98902.28
2023-03-21T06:12:59.283Z,98914.00
2023-03-21T06:15:25.552Z,98922.56
2023-03-21T06:17:51.758Z,98938.13
2023-03-21T06:20:17.954Z,98935.53
2023-03-21T06:22:44.154Z,98951.13
2023-03-21T06:25:10.369Z,98964.09
2023-03-21T06:27:36.638Z,98970.06
2023-03-21T06:30:03.431Z,98979.91
2023-03-21T06:32:29.641Z,98992.63
2023-03-21T06:34:55.856Z,98998.34
2023-03-21T06:37:22.064Z,98978.09
2023-03-21T06:39:48.276Z,98978.38
2023-03-21T06:42:14.502Z,98964.06
2023-03-21T06:44:40.821Z,98971.09
2023-03-21T06:47:07.088Z,98971.59
2023-03-21T06:49:33.330Z,98972.38
2023-03-21T06:51:59.540Z,98979.69
2023-03-21T06:54:25.768Z,98974.97
2023-03-21T06:56:51.976Z,98957.84
2023-03-21T06:59:18.185Z,98951.63
2023-03-21T07:01:44.398Z,98944.84
2023-03-21T07:04:10.618Z,98955.22
2023-03-21T07:06:36.828Z,98951.84
2023-03-21T07:09:03.098Z,98943.28
2023-03-21T07:11:29.311Z,98945.59
2023-03-21T07:13:55.532Z,98937.28
2023-03-21T07:16:21.885Z,98938.81
2023-03-21T07:18:48.158Z,98938.25
2023-03-21T07:21:14.350Z,98933.84
2023-03-21T07:23:40.551Z,98940.84
2023-03-21T07:26:06.873Z,98958.28
2023-03-21T07:28:33.105Z,98942.44
2023-03-21T07:31:00.232Z,98923.69
2023-03-21T07:33:26.538Z,98923.94
2023-03-21T07:35:53.673Z,98926.81
2023-03-21T07:38:19.904Z,98927.03
2023-03-21T07:40:46.272Z,98927.81
2023-03-21T07:43:12.567Z,98920.00
2023-03-21T07:45:39.077Z,98906.53
2023-03-21T07:48:05.495Z,98908.53
2023-03-21T07:50:31.789Z,98911.16
2023-03-21T07:52:58.004Z,98917.41
2023-03-21T07:55:24.218Z,98905.19
2023-03-21T07:57:50.436Z,98901.25
2023-03-21T08:00:17.382Z,98899.16
2023-03-21T08:02:43.647Z,98913.19
2023-03-21T08:05:09.901Z,98917.09
2023-03-21T08:07:36.105Z,98913.66
2023-03-21T08:10:02.329Z,98904.75
2023-03-21T08:12:28.553Z,98902.06
2023-03-21T08:14:54.766Z,98945.06
2023-03-21T08:17:20.972Z,98947.66
2023-03-21T08:19:47.178Z,98953.88
2023-03-21T08:22:13.390Z,98957.25
2023-03-21T08:24:39.617Z,98961.16
2023-03-21T08:27:05.888Z,98962.69
2023-03-21T08:29:32.113Z,98975.69
2023-03-21T08:31:58.322Z,98972.53
2023-03-21T08:34:24.527Z,98967.81
2023-03-21T08:36:50.750Z,98981.13
2023-03-21T08:39:16.982Z,98987.31
2023-03-21T08:41:43.185Z,99002.88
2023-03-21T08:44:09.666Z,99006.75
2023-03-21T08:46:35.905Z,99011.13
2023-03-21T08:49:02.152Z,99016.59
2023-03-21T08:51:28.368Z,99033.31
2023-03-21T08:53:54.592Z,99049.16
2023-03-21T08:56:20.831Z,99065.53
2023-03-21T08:58:47.030Z,99069.91
2023-03-21T09:01:13.244Z,99085.75
2023-03-21T09:03:39.454Z,99087.22
2023-03-21T09:06:05.732Z,99082.16
2023-03-21T09:08:31.962Z,99120.75
2023-03-21T09:10:58.208Z,99160.16
2023-03-21T09:13:24.427Z,99171.59
2023-03-21T09:15:50.656Z,99184.59
2023-03-21T09:18:16.889Z,99195.22
2023-03-21T09:20:43.161Z,99211.25
2023-03-21T09:23:09.836Z,99225.75
2023-03-21T09:25:36.663Z,99273.25
2023-03-21T09:28:03.063Z,99331.38
2023-03-21T09:30:29.373Z,99354.28
2023-03-21T09:32:55.769Z,99366.75
2023-03-21T09:35:22.151Z,99390.63
2023-03-21T09:37:48.423Z,99443.25
2023-03-21T09:40:16.405Z,99472.97
2023-03-21T09:42:55.888Z,99513.41
2023-03-21T09:45:23.985Z,99553.13
2023-03-21T09:47:50.222Z,99557.00
2023-03-21T09:50:20.738Z,99587.75
2023-03-21T09:52:51.639Z,99622.50
2023-03-21T09:55:17.901Z,99630.03
2023-03-21T09:57:44.121Z,99658.25
2023-03-21T10:00:12.893Z,99679.38
2023-03-21T10:02:40.229Z,99658.72
2023-03-21T10:05:14.939Z,99670.72
2023-03-21T10:07:42.253Z,99701.00
2023-03-21T10:10:15.236Z,99696.81
2023-03-21T10:12:41.438Z,99712.47
2023-03-21T10:15:07.727Z,99741.19
2023-03-21T10:17:35.426Z,99755.28
2023-03-21T10:20:12.241Z,99788.16
2023-03-21T10:22:38.535Z,99799.38
2023-03-21T10:25:05.255Z,99840.09
2023-03-21T10:27:31.675Z,99852.34
2023-03-21T10:29:57.892Z,99881.84
2023-03-21T10:32:24.119Z,99897.50
2023-03-21T10:34:51.200Z,99913.44
2023-03-21T10:37:17.416Z,99945.00
2023-03-21T10:39:43.890Z,99955.72
2023-03-21T10:42:23.507Z,99946.09
2023-03-21T10:44:50.026Z,99987.03
2023-03-21T10:47:23.266Z,99995.13
2023-03-21T10:50:06.882Z,99986.78
2023-03-21T10:52:33.799Z,100002.44
2023-03-21T10:55:29.478Z,100016.03
2023-03-21T10:57:56.796Z,100031.69
2023-03-21T11:00:24.611Z,100034.53
2023-03-21T11:02:51.145Z,100028.59
2023-03-21T11:05:20.780Z,100031.22
2023-03-21T11:07:47.197Z,100051.03
2023-03-21T11:10:20.008Z,100055.72
2023-03-21T11:12:53.721Z,100068.47
2023-03-21T11:15:28.349Z,100063.75
2023-03-21T11:17:54.607Z,100074.22
2023-03-21T11:20:20.996Z,100078.63
2023-03-21T11:22:47.517Z,100083.84
2023-03-21T11:25:20.807Z,100086.50
2023-03-21T11:27:50.356Z,100095.00
2023-03-21T11:30:21.092Z,100102.34
2023-03-21T11:32:50.341Z,100104.69
2023-03-21T11:35:19.860Z,100099.53
2023-03-21T11:37:46.754Z,100101.88
2023-03-21T11:40:25.165Z,100088.03
2023-03-21T11:42:52.133Z,100063.97
2023-03-21T11:45:19.800Z,100052.47
2023-03-21T11:47:46.344Z,100038.69
2023-03-21T11:50:31.122Z,100031.16
2023-03-21T11:53:05.036Z,100015.44
2023-03-21T11:55:31.236Z,99990.97
2023-03-21T11:58:13.513Z,99970.91
2023-03-21T12:00:47.759Z,99965.94
2023-03-21T12:03:13.920Z,99955.53
2023-03-21T12:05:43.511Z,99946.91
2023-03-21T12:08:12.692Z,99930.69
2023-03-21T12:10:40.608Z,99918.97
2023-03-21T12:13:13.389Z,99931.50
2023-03-21T12:15:42.182Z,99936.22
2023-03-21T12:18:24.972Z,99943.50
2023-03-21T12:20:54.828Z,99930.19
2023-03-21T12:23:21.090Z,99934.34
2023-03-21T12:26:09.289Z,99927.03
2023-03-21T12:28:44.632Z,99917.41
2023-03-21T12:31:17.704Z,99932.50
2023-03-21T12:34:02.877Z,99930.94
2023-03-21T12:36:32.504Z,99935.91
2023-03-21T12:39:01.711Z,99936.16
2023-03-21T12:41:46.403Z,99936.47
2023-03-21T12:44:15.648Z,99948.97
2023-03-21T12:47:11.134Z,99945.56
2023-03-21T12:49:51.983Z,99942.94
2023-03-21T12:52:23.991Z,99929.63
2023-03-21T12:54:51.802Z,99933.56
2023-03-21T12:57:19.127Z,99936.97
2023-03-21T12:59:51.522Z,99923.91
2023-03-21T13:02:18.822Z,99910.84
2023-03-21T13:04:51.220Z,99876.13
2023-03-21T13:07:17.737Z,99875.88
2023-03-21T13:09:44.024Z,99878.47
2023-03-21T13:12:19.850Z,99865.94
2023-03-21T13:15:12.505Z,99863.59
2023-03-21T13:17:42.517Z,99850.81
2023-03-21T13:20:13.060Z,99833.06
2023-03-21T13:22:39.260Z,99836.94
2023-03-21T13:25:06.191Z,99826.50
2023-03-21T13:27:33.154Z,99840.34
2023-03-21T13:30:03.985Z,99830.19
2023-03-21T13:32:38.314Z,99819.19
2023-03-21T13:35:23.359Z,99793.09
2023-03-21T13:37:50.149Z,99789.22
2023-03-21T13:40:20.715Z,99773.75
2023-03-21T13:42:50.189Z,99758.91
2023-03-21T13:45:23.332Z,99741.19
2023-03-21T13:47:55.373Z,99718.97
2023-03-21T13:50:22.537Z,99676.97
2023-03-21T13:53:04.046Z,99662.59
2023-03-21T13:55:30.694Z,99630.56
2023-03-21T13:57:56.904Z,99601.06
2023-03-21T14:00:29.482Z,99581.22
2023-03-21T14:02:59.773Z,99549.91
2023-03-21T14:05:26.135Z,99536.81
2023-03-21T14:07:54.735Z,99495.88
2023-03-21T14:10:35.904Z,99468.44
2023-03-21T14:13:02.183Z,99444.44
2023-03-21T14:15:43.756Z,99426.75
2023-03-21T14:18:27.856Z,99396.47
2023-03-21T14:21:02.301Z,99375.88
2023-03-21T14:23:29.775Z,99369.91
2023-03-21T14:25:55.983Z,99353.72
2023-03-21T14:28:25.384Z,99337.31
2023-03-21T14:30:54.972Z,99320.59
2023-03-21T14:33:37.052Z,99301.50
2023-03-21T14:36:04.999Z,99287.66
2023-03-21T14:38:35.202Z,99277.78
2023-03-21T14:41:01.409Z,99254.53
2023-03-21T14:43:27.633Z,99240.44
2023-03-21T14:45:54.946Z,99230.53
2023-03-21T14:48:22.084Z,99221.41
2023-03-21T14:50:51.845Z,99211.75
2023-03-21T14:53:32.029Z,99203.91
2023-03-21T14:55:59.754Z,99184.16
2023-03-21T14:58:25.955Z,99172.69
2023-03-21T15:00:52.147Z,99156.75
2023-03-21T15:03:18.797Z,99143.97
2023-03-21T15:05:45.020Z,99133.31
2023-03-21T15:08:11.177Z,99115.34
2023-03-21T15:10:37.381Z,99100.97
2023-03-21T15:13:13.532Z,99090.78
2023-03-21T15:15:40.064Z,99081.22
2023-03-21T15:18:06.562Z,99070.72
2023-03-21T15:20:33.804Z,99060.06
2023-03-21T15:23:01.340Z,99045.72
2023-03-21T15:25:28.232Z,99026.19
2023-03-21T15:27:54.442Z,99005.63
2023-03-21T15:30:21.980Z,98986.88
2023-03-21T15:32:48.654Z,98956.63
2023-03-21T15:35:15.578Z,98939.16
2023-03-21T15:37:41.798Z,98905.03
2023-03-21T15:40:09.086Z,98871.63
2023-03-21T15:42:38.938Z,98845.13
2023-03-21T15:45:20.225Z,98801.84
2023-03-21T15:47:49.563Z,98765.91
2023-03-21T15:50:34.597Z,98726.81
2023-03-21T15:53:01.270Z,98675.25
2023-03-21T15:55:31.333Z,98650.25
2023-03-21T15:58:03.286Z,98627.84
2023-03-21T16:00:35.576Z,98586.13
2023-03-21T16:03:03.850Z,98561.13
2023-03-21T16:05:30.710Z,98541.31
2023-03-21T16:08:15.724Z,98505.03
2023-03-21T16:10:42.340Z,98494.91
2023-03-21T16:13:10.052Z,98476.34
2023-03-21T16:15:36.258Z,98458.50
2023-03-21T16:18:02.627Z,98435.59
2023-03-21T16:20:31.028Z,98414.75
2023-03-21T16:22:57.248Z,98389.47
2023-03-21T16:25:23.487Z,98359.84
2023-03-21T16:27:49.727Z,98338.22
2023-03-21T16:30:17.331Z,98293.63
2023-03-21T16:32:43.534Z,98286.09
2023-03-21T16:35:09.749Z,98269.41
2023-03-21T16:37:35.967Z,98263.25
2023-03-21T16:40:02.286Z,98238.53
2023-03-21T16:42:28.609Z,98212.47
2023-03-21T16:44:55.042Z,98194.72
2023-03-21T16:47:21.292Z,98185.16
2023-03-21T16:49:47.540Z,98158.03
2023-03-21T16:52:13.824Z,98153.91
2023-03-21T16:54:40.341Z,98148.69
2023-03-21T16:57:06.833Z,98136.28
2023-03-21T16:59:33.410Z,98131.06
2023-03-21T17:01:59.610Z,98103.94
2023-03-21T17:04:25.828Z,98094.13
2023-03-21T17:06:52.496Z,98064.09
2023-03-21T17:09:19.587Z,98063.91
2023-03-21T17:11:45.792Z,98046.56
2023-03-21T17:14:12.065Z,98029.41
2023-03-21T17:16:38.413Z,98014.66
2023-03-21T17:19:07.192Z,98006.56
2023-03-21T17:21:33.382Z,97989.09
2023-03-21T17:23:59.601Z,97964.88
2023-03-21T17:26:26.413Z,97947.72
2023-03-21T17:28:55.185Z,97941.59
2023-03-21T17:31:21.987Z,97929.00
2023-03-21T17:33:48.278Z,97917.84
2023-03-21T17:36:15.005Z,97914.78
2023-03-21T17:38:41.244Z,97899.63
2023-03-21T17:41:10.236Z,97904.66
2023-03-21T17:43:36.437Z,97902.38
2023-03-21T17:46:02.670Z,97885.66
2023-03-21T17:48:28.933Z,97877.09
2023-03-21T17:50:55.137Z,97867.75
2023-03-21T17:53:21.352Z,97860.19
2023-03-21T17:55:47.564Z,97850.06
2023-03-21T17:58:13.766Z,97842.59
2023-03-21T18:00:40.274Z,97819.59
2023-03-21T18:03:06.632Z,97812.56
2023-03-21T18:05:32.842Z,97799.41
2023-03-21T18:08:10.931Z,97787.91
2023-03-21T18:10:38.708Z,97776.72
2023-03-21T18:13:05.026Z,97766.63
2023-03-21T18:15:31.296Z,97754.34
2023-03-21T18:17:57.697Z,97739.94
2023-03-21T18:20:24.406Z,97728.94
2023-03-21T18:22:50.665Z,97743.47
2023-03-21T18:25:16.869Z,97730.78
2023-03-21T18:28:06.984Z,97711.78
2023-03-21T18:30:53.060Z,97723.41
2023-03-21T18:33:15.474Z,97723.41
2023-03-21T18:35:41.737Z,97731.34
2023-03-21T18:38:07.958Z,97728.91
2023-03-21T18:40:34.164Z,97737.63
2023-03-21T18:43:47.321Z,97748.19
2023-03-21T18:45:46.652Z,97769.94
2023-03-21T18:48:12.905Z,97771.28
2023-03-21T18:50:39.594Z,97778.31
2023-03-21T18:53:05.991Z,97790.09
2023-03-21T18:55:45.413Z,97790.69
2023-03-21T18:58:12.936Z,97788.09
2023-03-21T19:00:39.517Z,97786.88
2023-03-21T19:03:18.929Z,97794.22
2023-03-21T19:05:50.906Z,97798.34
2023-03-21T19:08:17.098Z,97798.66
2023-03-21T19:10:43.374Z,97808.09
2023-03-21T19:13:09.579Z,97798.78
2023-03-21T19:15:35.781Z,97811.31
2023-03-21T19:20:48.170Z,97821.41
2023-03-21T19:23:14.648Z,97840.47
2023-03-21T19:25:40.911Z,97842.00
2023-03-21T19:28:07.111Z,97848.00
2023-03-21T19:30:34.188Z,97863.41
2023-03-21T19:33:00.489Z,97851.47
2023-03-21T19:35:28.256Z,97852.53
2023-03-21T19:37:54.528Z,97853.63
2023-03-21T19:40:20.751Z,97856.06
2023-03-21T19:42:46.980Z,97858.66
2023-03-21T19:45:13.196Z,97872.72
2023-03-21T19:47:39.477Z,97873.28
2023-03-21T19:50:45.513Z,97885.38
2023-03-21T19:52:52.278Z,97888.56
2023-03-21T19:55:18.505Z,97893.75
2023-03-21T19:57:44.700Z,97894.06
2023-03-21T20:00:11.108Z,97890.38
2023-03-21T20:02:37.627Z,97892.09
2023-03-21T20:05:07.062Z,97916.38
2023-03-21T20:07:33.305Z,97929.69
2023-03-21T20:09:59.512Z,97940.09
2023-03-21T20:12:25.735Z,97958.13
2023-03-21T20:14:57.970Z,97966.97
2023-03-21T20:17:27.187Z,97978.16
2023-03-21T20:19:53.392Z,97982.09
2023-03-21T20:22:29.414Z,97982.09
2023-03-21T20:25:06.119Z,98008.97
2023-03-21T20:27:34.571Z,98018.31
2023-03-21T20:30:09.043Z,98017.72
2023-03-21T20:32:36.487Z,98016.66
2023-03-21T20:35:17.042Z,98020.81
2023-03-21T20:37:46.336Z,98029.38
2023-03-21T20:40:12.796Z,98031.88
2023-03-21T20:42:39.357Z,98040.06
2023-03-21T20:45:06.015Z,98046.22
2023-03-21T20:47:32.228Z,98065.19
2023-03-21T20:49:58.448Z,98057.19
2023-03-21T20:55:11.490Z,98072.53
2023-03-21T20:57:38.932Z,98076.97
2023-03-21T21:00:05.509Z,98072.81
2023-03-21T21:02:31.733Z,98060.88
2023-03-21T21:05:24.335Z,98060.38
2023-03-21T21:07:44.148Z,98061.72
2023-03-21T21:10:10.879Z,98046.41
2023-03-21T21:12:37.743Z,98032.84
2023-03-21T21:15:04.117Z,98037.47
2023-03-21T21:17:57.841Z,98031.31
2023-03-21T21:20:16.638Z,98025.63
2023-03-21T21:22:59.494Z,98030.66
2023-03-21T21:25:26.691Z,98018.78
2023-03-21T21:27:52.914Z,98001.06
2023-03-21T21:30:19.127Z,97981.81
2023-03-21T21:32:45.364Z,97967.19
2023-03-21T21:35:11.562Z,97951.13
2023-03-21T21:37:37.778Z,97923.78
2023-03-21T21:40:04.140Z,97897.94
2023-03-21T21:42:30.364Z,97872.00
2023-03-21T21:44:56.576Z,97848.50
2023-03-21T21:47:22.805Z,97833.47
2023-03-21T21:49:49.039Z,97802.75
2023-03-21T21:52:15.260Z,97788.38
2023-03-21T21:54:41.465Z,97761.28
2023-03-21T21:57:07.662Z,97743.66
2023-03-21T21:59:33.891Z,97719.19
2023-03-21T22:02:00.110Z,97694.91
2023-03-21T22:04:26.328Z,97677.75
2023-03-21T22:06:52.873Z,97667.53
2023-03-21T22:09:19.079Z,97635.56
2023-03-21T22:11:45.283Z,97617.84
2023-03-21T22:14:11.494Z,97596.25
2023-03-21T22:16:37.733Z,97560.47
2023-03-21T22:19:04.087Z,97537.25
2023-03-21T22:21:30.388Z,97512.78
2023-03-21T22:23:56.646Z,97504.00
2023-03-21T22:26:23.008Z,97479.84
2023-03-21T22:28:49.306Z,97472.03
2023-03-21T22:31:15.905Z,97446.03
2023-03-21T22:33:42.544Z,97433.38
2023-03-21T22:36:08.922Z,97409.97
2023-03-21T22:38:35.134Z,97371.22
2023-03-21T22:41:01.768Z,97355.63
2023-03-21T22:43:28.407Z,97319.41
2023-03-21T22:45:54.688Z,97314.19
2023-03-21T22:48:21.232Z,97294.47
2023-03-21T22:50:47.657Z,97277.72
2023-03-21T22:53:13.859Z,97280.38
2023-03-21T22:55:40.152Z,97266.28
2023-03-21T22:58:06.398Z,97256.78
2023-03-21T23:00:32.621Z,97238.38
2023-03-21T23:02:58.836Z,97235.97
2023-03-21T23:05:25.231Z,97216.06
2023-03-21T23:07:51.436Z,97212.06
2023-03-21T23:10:17.644Z,97220.03
2023-03-21T23:12:43.842Z,97213.31
2023-03-21T23:15:10.297Z,97198.91
2023-03-21T23:17:36.507Z,97200.00
2023-03-21T23:20:02.727Z,97190.97
2023-03-21T23:22:31.754Z,97187.63
2023-03-21T23:24:58.019Z,97171.38
2023-03-21T23:27:24.238Z,97167.41
2023-03-21T23:29:50.481Z,97172.91
2023-03-21T23:32:16.682Z,97172.25
2023-03-21T23:34:42.878Z,97168.59
2023-03-21T23:37:09.082Z,97183.59
2023-03-21T23:39:35.295Z,97176.41
2023-03-21T23:42:01.517Z,97184.06
2023-03-21T23:44:27.722Z,97164.16
2023-03-21T23:46:53.974Z,97155.13
2023-03-21T23:49:20.176Z,97153.44
2023-03-21T23:51:46.384Z,97149.91
2023-03-21T23:54:12.661Z,97145.19
2023-03-21T23:56:38.857Z,97142.13
2023-03-21T23:59:05.071Z,97134.97
